sensor_id;sensor_type;location;lat;lon;timestamp;P1;durP1;ratioP1;P2;durP2;ratioP2
52322;SDS011;38263;52.920;6.238;2022-09-13T00:00:33;29.67;;;21.50;;
52322;SDS011;38263;52.920;6.238;2022-09-13T00:02:59;31.13;;;22.23;;
52322;SDS011;38263;52.920;6.238;2022-09-13T00:05:26;32.28;;;23.00;;
52322;SDS011;38263;52.920;6.238;2022-09-13T00:07:52;29.25;;;21.83;;
52322;SDS011;38263;52.920;6.238;2022-09-13T00:10:17;30.90;;;21.67;;
52322;SDS011;38263;52.920;6.238;2022-09-13T00:12:43;31.08;;;22.65;;
52322;SDS011;38263;52.920;6.238;2022-09-13T00:15:09;34.35;;;22.30;;
52322;SDS011;38263;52.920;6.238;2022-09-13T00:17:35;31.77;;;22.67;;
52322;SDS011;38263;52.920;6.238;2022-09-13T00:20:01;33.33;;;23.05;;
52322;SDS011;38263;52.920;6.238;2022-09-13T00:22:27;34.83;;;23.80;;
52322;SDS011;38263;52.920;6.238;2022-09-13T00:24:53;35.55;;;24.67;;
52322;SDS011;38263;52.920;6.238;2022-09-13T00:27:18;37.28;;;24.92;;
52322;SDS011;38263;52.920;6.238;2022-09-13T00:29:44;35.63;;;25.27;;
52322;SDS011;38263;52.920;6.238;2022-09-13T00:32:10;33.05;;;24.10;;
52322;SDS011;38263;52.920;6.238;2022-09-13T00:34:36;30.98;;;23.05;;
52322;SDS011;38263;52.920;6.238;2022-09-13T00:37:01;34.60;;;22.75;;
52322;SDS011;38263;52.920;6.238;2022-09-13T00:39:27;31.15;;;23.25;;
52322;SDS011;38263;52.920;6.238;2022-09-13T00:41:52;32.38;;;22.85;;
52322;SDS011;38263;52.920;6.238;2022-09-13T00:47:23;30.33;;;22.70;;
52322;SDS011;38263;52.920;6.238;2022-09-13T00:52:35;35.00;;;23.85;;
52322;SDS011;38263;52.920;6.238;2022-09-13T00:55:06;28.42;;;22.80;;
52322;SDS011;38263;52.920;6.238;2022-09-13T00:57:37;31.25;;;23.10;;
52322;SDS011;38263;52.920;6.238;2022-09-13T01:00:07;35.47;;;24.98;;
52322;SDS011;38263;52.920;6.238;2022-09-13T01:03:12;31.58;;;23.08;;
52322;SDS011;38263;52.920;6.238;2022-09-13T01:05:33;27.88;;;21.58;;
52322;SDS011;38263;52.920;6.238;2022-09-13T01:08:02;29.08;;;21.08;;
52322;SDS011;38263;52.920;6.238;2022-09-13T01:10:34;31.75;;;22.10;;
52322;SDS011;38263;52.920;6.238;2022-09-13T01:15:38;29.52;;;21.20;;
52322;SDS011;38263;52.920;6.238;2022-09-13T01:18:05;30.75;;;22.38;;
52322;SDS011;38263;52.920;6.238;2022-09-13T01:23:45;31.17;;;22.38;;
52322;SDS011;38263;52.920;6.238;2022-09-13T01:32:21;29.40;;;21.20;;
52322;SDS011;38263;52.920;6.238;2022-09-13T01:40:42;29.13;;;21.02;;
52322;SDS011;38263;52.920;6.238;2022-09-13T01:46:07;27.33;;;21.15;;
52322;SDS011;38263;52.920;6.238;2022-09-13T01:55:17;30.15;;;20.48;;
52322;SDS011;38263;52.920;6.238;2022-09-13T01:58:02;27.92;;;18.60;;
52322;SDS011;38263;52.920;6.238;2022-09-13T02:00:35;27.52;;;18.95;;
52322;SDS011;38263;52.920;6.238;2022-09-13T02:08:16;25.20;;;17.98;;
52322;SDS011;38263;52.920;6.238;2022-09-13T02:10:45;23.27;;;17.60;;
52322;SDS011;38263;52.920;6.238;2022-09-13T02:13:17;27.73;;;18.27;;
52322;SDS011;38263;52.920;6.238;2022-09-13T02:15:48;27.08;;;18.70;;
52322;SDS011;38263;52.920;6.238;2022-09-13T02:18:29;26.63;;;18.02;;
52322;SDS011;38263;52.920;6.238;2022-09-13T02:21:00;25.70;;;17.58;;
52322;SDS011;38263;52.920;6.238;2022-09-13T02:23:31;25.42;;;18.48;;
52322;SDS011;38263;52.920;6.238;2022-09-13T02:26:02;25.75;;;17.85;;
52322;SDS011;38263;52.920;6.238;2022-09-13T02:28:31;27.70;;;18.48;;
52322;SDS011;38263;52.920;6.238;2022-09-13T02:31:00;22.90;;;16.65;;
52322;SDS011;38263;52.920;6.238;2022-09-13T02:33:30;25.38;;;16.35;;
52322;SDS011;38263;52.920;6.238;2022-09-13T02:36:01;23.52;;;16.33;;
52322;SDS011;38263;52.920;6.238;2022-09-13T02:38:50;21.58;;;16.33;;
52322;SDS011;38263;52.920;6.238;2022-09-13T02:41:24;18.65;;;14.75;;
52322;SDS011;38263;52.920;6.238;2022-09-13T02:44:10;22.50;;;15.38;;
52322;SDS011;38263;52.920;6.238;2022-09-13T02:47:08;21.80;;;15.18;;
52322;SDS011;38263;52.920;6.238;2022-09-13T02:55:18;19.70;;;13.25;;
52322;SDS011;38263;52.920;6.238;2022-09-13T02:57:51;19.52;;;14.60;;
52322;SDS011;38263;52.920;6.238;2022-09-13T03:00:24;15.95;;;12.65;;
52322;SDS011;38263;52.920;6.238;2022-09-13T03:02:49;15.52;;;11.93;;
52322;SDS011;38263;52.920;6.238;2022-09-13T03:05:16;21.10;;;12.60;;
52322;SDS011;38263;52.920;6.238;2022-09-13T03:07:42;16.23;;;11.75;;
52322;SDS011;38263;52.920;6.238;2022-09-13T03:10:11;17.25;;;12.80;;
52322;SDS011;38263;52.920;6.238;2022-09-13T03:18:01;17.25;;;11.18;;
52322;SDS011;38263;52.920;6.238;2022-09-13T03:26:15;14.52;;;9.85;;
52322;SDS011;38263;52.920;6.238;2022-09-13T03:28:57;13.43;;;9.80;;
52322;SDS011;38263;52.920;6.238;2022-09-13T03:31:44;14.98;;;9.75;;
52322;SDS011;38263;52.920;6.238;2022-09-13T03:34:33;15.25;;;9.55;;
52322;SDS011;38263;52.920;6.238;2022-09-13T03:37:21;11.93;;;9.48;;
52322;SDS011;38263;52.920;6.238;2022-09-13T03:40:05;12.82;;;8.88;;
52322;SDS011;38263;52.920;6.238;2022-09-13T03:45:27;12.07;;;9.10;;
52322;SDS011;38263;52.920;6.238;2022-09-13T03:47:57;11.00;;;8.00;;
52322;SDS011;38263;52.920;6.238;2022-09-13T03:50:24;11.52;;;9.55;;
52322;SDS011;38263;52.920;6.238;2022-09-13T03:52:53;12.23;;;8.32;;
52322;SDS011;38263;52.920;6.238;2022-09-13T03:55:23;11.40;;;7.82;;
52322;SDS011;38263;52.920;6.238;2022-09-13T03:57:49;10.65;;;7.53;;
52322;SDS011;38263;52.920;6.238;2022-09-13T04:00:15;14.32;;;8.43;;
52322;SDS011;38263;52.920;6.238;2022-09-13T04:02:42;11.02;;;7.88;;
52322;SDS011;38263;52.920;6.238;2022-09-13T04:05:08;15.10;;;8.57;;
52322;SDS011;38263;52.920;6.238;2022-09-13T04:07:33;13.02;;;8.50;;
52322;SDS011;38263;52.920;6.238;2022-09-13T04:09:59;11.38;;;8.65;;
52322;SDS011;38263;52.920;6.238;2022-09-13T04:12:25;12.25;;;8.38;;
52322;SDS011;38263;52.920;6.238;2022-09-13T04:14:52;12.45;;;8.07;;
52322;SDS011;38263;52.920;6.238;2022-09-13T04:17:18;11.68;;;7.30;;
52322;SDS011;38263;52.920;6.238;2022-09-13T04:19:43;12.00;;;6.65;;
52322;SDS011;38263;52.920;6.238;2022-09-13T04:22:11;10.98;;;6.38;;
52322;SDS011;38263;52.920;6.238;2022-09-13T04:24:37;9.63;;;5.85;;
52322;SDS011;38263;52.920;6.238;2022-09-13T04:27:04;7.25;;;5.28;;
52322;SDS011;38263;52.920;6.238;2022-09-13T04:29:30;8.82;;;5.13;;
52322;SDS011;38263;52.920;6.238;2022-09-13T04:31:56;6.63;;;4.30;;
52322;SDS011;38263;52.920;6.238;2022-09-13T04:34:22;6.15;;;3.97;;
52322;SDS011;38263;52.920;6.238;2022-09-13T04:36:48;8.70;;;4.05;;
52322;SDS011;38263;52.920;6.238;2022-09-13T04:39:14;9.23;;;4.10;;
52322;SDS011;38263;52.920;6.238;2022-09-13T04:41:40;5.70;;;3.25;;
52322;SDS011;38263;52.920;6.238;2022-09-13T04:44:10;5.18;;;3.00;;
52322;SDS011;38263;52.920;6.238;2022-09-13T04:46:35;6.90;;;3.05;;
52322;SDS011;38263;52.920;6.238;2022-09-13T04:49:01;7.63;;;2.20;;
52322;SDS011;38263;52.920;6.238;2022-09-13T04:51:27;3.53;;;2.10;;
52322;SDS011;38263;52.920;6.238;2022-09-13T04:53:53;5.15;;;1.40;;
52322;SDS011;38263;52.920;6.238;2022-09-13T04:56:20;5.40;;;1.08;;
52322;SDS011;38263;52.920;6.238;2022-09-13T04:58:47;4.50;;;1.40;;
52322;SDS011;38263;52.920;6.238;2022-09-13T05:01:17;4.70;;;1.60;;
52322;SDS011;38263;52.920;6.238;2022-09-13T05:03:43;4.35;;;1.27;;
52322;SDS011;38263;52.920;6.238;2022-09-13T05:06:12;2.00;;;1.20;;
52322;SDS011;38263;52.920;6.238;2022-09-13T05:08:42;8.20;;;2.63;;
52322;SDS011;38263;52.920;6.238;2022-09-13T05:11:08;3.92;;;1.63;;
52322;SDS011;38263;52.920;6.238;2022-09-13T05:13:34;3.47;;;2.25;;
52322;SDS011;38263;52.920;6.238;2022-09-13T05:16:01;4.28;;;2.17;;
52322;SDS011;38263;52.920;6.238;2022-09-13T05:18:29;4.22;;;2.05;;
52322;SDS011;38263;52.920;6.238;2022-09-13T05:21:00;5.93;;;2.47;;
52322;SDS011;38263;52.920;6.238;2022-09-13T05:23:28;5.32;;;1.88;;
52322;SDS011;38263;52.920;6.238;2022-09-13T05:25:56;4.05;;;1.73;;
52322;SDS011;38263;52.920;6.238;2022-09-13T05:28:23;6.57;;;2.08;;
52322;SDS011;38263;52.920;6.238;2022-09-13T05:31:06;2.72;;;1.50;;
52322;SDS011;38263;52.920;6.238;2022-09-13T05:33:43;5.80;;;1.50;;
52322;SDS011;38263;52.920;6.238;2022-09-13T05:36:09;3.97;;;1.45;;
52322;SDS011;38263;52.920;6.238;2022-09-13T05:38:35;6.90;;;1.73;;
52322;SDS011;38263;52.920;6.238;2022-09-13T05:41:01;3.92;;;1.83;;
52322;SDS011;38263;52.920;6.238;2022-09-13T05:43:29;5.43;;;1.70;;
52322;SDS011;38263;52.920;6.238;2022-09-13T05:46:00;7.85;;;2.05;;
52322;SDS011;38263;52.920;6.238;2022-09-13T05:48:26;2.28;;;1.33;;
52322;SDS011;38263;52.920;6.238;2022-09-13T05:50:53;4.63;;;1.55;;
52322;SDS011;38263;52.920;6.238;2022-09-13T05:53:19;3.50;;;1.52;;
52322;SDS011;38263;52.920;6.238;2022-09-13T05:55:44;9.20;;;1.70;;
52322;SDS011;38263;52.920;6.238;2022-09-13T05:58:10;7.05;;;1.80;;
52322;SDS011;38263;52.920;6.238;2022-09-13T06:00:35;4.80;;;1.63;;
52322;SDS011;38263;52.920;6.238;2022-09-13T06:03:01;4.57;;;1.52;;
52322;SDS011;38263;52.920;6.238;2022-09-13T06:05:27;6.85;;;1.83;;
52322;SDS011;38263;52.920;6.238;2022-09-13T06:07:53;4.82;;;1.60;;
52322;SDS011;38263;52.920;6.238;2022-09-13T06:10:18;6.45;;;3.10;;
52322;SDS011;38263;52.920;6.238;2022-09-13T06:12:44;3.78;;;1.58;;
52322;SDS011;38263;52.920;6.238;2022-09-13T06:15:11;3.80;;;1.40;;
52322;SDS011;38263;52.920;6.238;2022-09-13T06:17:37;4.03;;;1.88;;
52322;SDS011;38263;52.920;6.238;2022-09-13T06:20:02;4.53;;;2.00;;
52322;SDS011;38263;52.920;6.238;2022-09-13T06:22:29;4.75;;;1.70;;
52322;SDS011;38263;52.920;6.238;2022-09-13T06:24:57;4.82;;;2.03;;
52322;SDS011;38263;52.920;6.238;2022-09-13T06:27:23;6.22;;;2.35;;
52322;SDS011;38263;52.920;6.238;2022-09-13T06:29:49;4.03;;;1.50;;
52322;SDS011;38263;52.920;6.238;2022-09-13T06:32:14;5.50;;;2.00;;
52322;SDS011;38263;52.920;6.238;2022-09-13T06:34:40;6.57;;;2.10;;
52322;SDS011;38263;52.920;6.238;2022-09-13T06:37:06;6.05;;;1.85;;
52322;SDS011;38263;52.920;6.238;2022-09-13T06:39:31;8.13;;;1.73;;
52322;SDS011;38263;52.920;6.238;2022-09-13T06:41:58;4.10;;;1.30;;
52322;SDS011;38263;52.920;6.238;2022-09-13T06:44:24;3.67;;;1.48;;
52322;SDS011;38263;52.920;6.238;2022-09-13T06:46:49;3.42;;;1.38;;
52322;SDS011;38263;52.920;6.238;2022-09-13T06:49:15;3.28;;;1.38;;
52322;SDS011;38263;52.920;6.238;2022-09-13T06:51:41;6.40;;;1.60;;
52322;SDS011;38263;52.920;6.238;2022-09-13T06:54:06;5.68;;;1.65;;
52322;SDS011;38263;52.920;6.238;2022-09-13T06:56:33;8.88;;;1.67;;
52322;SDS011;38263;52.920;6.238;2022-09-13T06:59:02;5.30;;;1.67;;
52322;SDS011;38263;52.920;6.238;2022-09-13T07:01:30;6.25;;;1.70;;
52322;SDS011;38263;52.920;6.238;2022-09-13T07:03:58;6.60;;;1.75;;
52322;SDS011;38263;52.920;6.238;2022-09-13T07:06:26;6.50;;;1.98;;
52322;SDS011;38263;52.920;6.238;2022-09-13T07:08:54;4.45;;;1.73;;
52322;SDS011;38263;52.920;6.238;2022-09-13T07:11:22;7.85;;;1.25;;
52322;SDS011;38263;52.920;6.238;2022-09-13T07:13:50;4.15;;;1.40;;
52322;SDS011;38263;52.920;6.238;2022-09-13T07:16:17;3.53;;;1.40;;
52322;SDS011;38263;52.920;6.238;2022-09-13T07:18:44;5.80;;;1.20;;
52322;SDS011;38263;52.920;6.238;2022-09-13T07:21:19;2.95;;;1.38;;
52322;SDS011;38263;52.920;6.238;2022-09-13T07:23:46;9.38;;;2.03;;
52322;SDS011;38263;52.920;6.238;2022-09-13T07:26:12;5.57;;;1.10;;
52322;SDS011;38263;52.920;6.238;2022-09-13T07:28:38;8.88;;;1.17;;
52322;SDS011;38263;52.920;6.238;2022-09-13T07:33:33;6.13;;;0.98;;
52322;SDS011;38263;52.920;6.238;2022-09-13T07:35:59;5.40;;;1.25;;
52322;SDS011;38263;52.920;6.238;2022-09-13T07:38:26;5.97;;;1.33;;
52322;SDS011;38263;52.920;6.238;2022-09-13T07:40:52;4.07;;;1.20;;
52322;SDS011;38263;52.920;6.238;2022-09-13T07:43:20;4.85;;;1.35;;
52322;SDS011;38263;52.920;6.238;2022-09-13T07:45:45;4.43;;;1.17;;
52322;SDS011;38263;52.920;6.238;2022-09-13T07:48:11;6.30;;;1.02;;
52322;SDS011;38263;52.920;6.238;2022-09-13T07:50:36;3.58;;;1.05;;
52322;SDS011;38263;52.920;6.238;2022-09-13T07:53:02;3.60;;;0.60;;
52322;SDS011;38263;52.920;6.238;2022-09-13T07:55:28;3.80;;;0.60;;
52322;SDS011;38263;52.920;6.238;2022-09-13T07:57:54;4.00;;;0.73;;
52322;SDS011;38263;52.920;6.238;2022-09-13T08:00:20;2.60;;;0.50;;
52322;SDS011;38263;52.920;6.238;2022-09-13T08:02:45;6.03;;;0.95;;
52322;SDS011;38263;52.920;6.238;2022-09-13T08:05:11;3.13;;;0.77;;
52322;SDS011;38263;52.920;6.238;2022-09-13T08:07:38;4.75;;;0.80;;
52322;SDS011;38263;52.920;6.238;2022-09-13T08:10:04;3.40;;;0.47;;
52322;SDS011;38263;52.920;6.238;2022-09-13T08:12:29;2.97;;;0.60;;
52322;SDS011;38263;52.920;6.238;2022-09-13T08:14:55;1.58;;;0.45;;
52322;SDS011;38263;52.920;6.238;2022-09-13T08:17:20;4.75;;;0.85;;
52322;SDS011;38263;52.920;6.238;2022-09-13T08:19:46;2.95;;;0.45;;
52322;SDS011;38263;52.920;6.238;2022-09-13T08:22:11;5.15;;;0.60;;
52322;SDS011;38263;52.920;6.238;2022-09-13T08:24:37;6.47;;;0.70;;
52322;SDS011;38263;52.920;6.238;2022-09-13T08:27:02;6.43;;;0.85;;
52322;SDS011;38263;52.920;6.238;2022-09-13T08:29:28;6.30;;;1.00;;
52322;SDS011;38263;52.920;6.238;2022-09-13T08:31:54;3.25;;;0.57;;
52322;SDS011;38263;52.920;6.238;2022-09-13T08:34:19;5.28;;;0.85;;
52322;SDS011;38263;52.920;6.238;2022-09-13T08:36:45;3.25;;;0.57;;
52322;SDS011;38263;52.920;6.238;2022-09-13T08:39:11;5.45;;;0.95;;
52322;SDS011;38263;52.920;6.238;2022-09-13T08:46:56;2.30;;;0.88;;
52322;SDS011;38263;52.920;6.238;2022-09-13T08:49:31;4.72;;;1.77;;
52322;SDS011;38263;52.920;6.238;2022-09-13T08:55:07;4.95;;;0.57;;
52322;SDS011;38263;52.920;6.238;2022-09-13T08:58:03;3.05;;;0.40;;
52322;SDS011;38263;52.920;6.238;2022-09-13T09:00:58;2.55;;;0.60;;
52322;SDS011;38263;52.920;6.238;2022-09-13T09:03:41;3.13;;;0.57;;
52322;SDS011;38263;52.920;6.238;2022-09-13T09:06:16;8.38;;;0.50;;
52322;SDS011;38263;52.920;6.238;2022-09-13T09:08:46;4.35;;;0.50;;
52322;SDS011;38263;52.920;6.238;2022-09-13T09:11:20;7.93;;;0.50;;
52322;SDS011;38263;52.920;6.238;2022-09-13T09:14:11;4.25;;;0.57;;
52322;SDS011;38263;52.920;6.238;2022-09-13T09:16:46;1.65;;;0.30;;
52322;SDS011;38263;52.920;6.238;2022-09-13T09:19:22;4.38;;;0.60;;
52322;SDS011;38263;52.920;6.238;2022-09-13T09:21:52;4.13;;;0.60;;
52322;SDS011;38263;52.920;6.238;2022-09-13T09:24:21;5.90;;;0.50;;
52322;SDS011;38263;52.920;6.238;2022-09-13T09:26:49;3.13;;;0.43;;
52322;SDS011;38263;52.920;6.238;2022-09-13T09:29:20;4.95;;;0.60;;
52322;SDS011;38263;52.920;6.238;2022-09-13T09:39:48;5.72;;;0.90;;
52322;SDS011;38263;52.920;6.238;2022-09-13T09:42:19;3.17;;;0.40;;
52322;SDS011;38263;52.920;6.238;2022-09-13T09:44:54;4.05;;;0.47;;
52322;SDS011;38263;52.920;6.238;2022-09-13T09:47:48;5.88;;;0.70;;
52322;SDS011;38263;52.920;6.238;2022-09-13T09:50:15;2.03;;;0.70;;
52322;SDS011;38263;52.920;6.238;2022-09-13T09:52:49;5.63;;;0.60;;
52322;SDS011;38263;52.920;6.238;2022-09-13T09:55:22;2.38;;;0.50;;
52322;SDS011;38263;52.920;6.238;2022-09-13T09:57:58;3.45;;;0.30;;
52322;SDS011;38263;52.920;6.238;2022-09-13T10:00:30;3.80;;;0.40;;
52322;SDS011;38263;52.920;6.238;2022-09-13T10:03:00;3.72;;;0.73;;
52322;SDS011;38263;52.920;6.238;2022-09-13T10:05:29;3.65;;;0.45;;
52322;SDS011;38263;52.920;6.238;2022-09-13T10:08:02;2.10;;;0.30;;
52322;SDS011;38263;52.920;6.238;2022-09-13T10:10:35;4.53;;;0.70;;
52322;SDS011;38263;52.920;6.238;2022-09-13T10:13:06;3.03;;;0.30;;
52322;SDS011;38263;52.920;6.238;2022-09-13T10:15:51;5.22;;;0.55;;
52322;SDS011;38263;52.920;6.238;2022-09-13T10:18:21;3.72;;;0.30;;
52322;SDS011;38263;52.920;6.238;2022-09-13T10:20:58;3.53;;;0.22;;
52322;SDS011;38263;52.920;6.238;2022-09-13T10:23:27;8.88;;;0.60;;
52322;SDS011;38263;52.920;6.238;2022-09-13T10:25:55;9.30;;;0.55;;
52322;SDS011;38263;52.920;6.238;2022-09-13T10:28:28;4.63;;;0.40;;
52322;SDS011;38263;52.920;6.238;2022-09-13T10:30:57;6.05;;;0.90;;
52322;SDS011;38263;52.920;6.238;2022-09-13T10:33:30;4.22;;;0.85;;
52322;SDS011;38263;52.920;6.238;2022-09-13T10:35:59;3.45;;;0.57;;
52322;SDS011;38263;52.920;6.238;2022-09-13T10:38:38;1.70;;;0.40;;
52322;SDS011;38263;52.920;6.238;2022-09-13T10:41:07;5.97;;;0.30;;
52322;SDS011;38263;52.920;6.238;2022-09-13T10:43:35;2.83;;;0.40;;
52322;SDS011;38263;52.920;6.238;2022-09-13T10:46:02;4.82;;;0.65;;
52322;SDS011;38263;52.920;6.238;2022-09-13T10:48:30;4.13;;;0.40;;
52322;SDS011;38263;52.920;6.238;2022-09-13T10:53:50;3.97;;;0.90;;
52322;SDS011;38263;52.920;6.238;2022-09-13T10:56:35;2.95;;;0.30;;
52322;SDS011;38263;52.920;6.238;2022-09-13T11:12:23;6.50;;;0.70;;
52322;SDS011;38263;52.920;6.238;2022-09-13T11:15:26;7.35;;;0.60;;
52322;SDS011;38263;52.920;6.238;2022-09-13T11:20:44;5.63;;;0.77;;
52322;SDS011;38263;52.920;6.238;2022-09-13T11:26:27;6.47;;;0.60;;
52322;SDS011;38263;52.920;6.238;2022-09-13T11:29:04;5.80;;;0.47;;
52322;SDS011;38263;52.920;6.238;2022-09-13T11:31:52;8.48;;;0.60;;
52322;SDS011;38263;52.920;6.238;2022-09-13T11:37:39;3.63;;;0.45;;
52322;SDS011;38263;52.920;6.238;2022-09-13T11:52:06;2.53;;;0.32;;
52322;SDS011;38263;52.920;6.238;2022-09-13T11:57:22;6.13;;;0.68;;
52322;SDS011;38263;52.920;6.238;2022-09-13T11:59:55;8.88;;;1.52;;
52322;SDS011;38263;52.920;6.238;2022-09-13T12:02:56;5.80;;;0.60;;
52322;SDS011;38263;52.920;6.238;2022-09-13T12:05:26;4.13;;;0.40;;
52322;SDS011;38263;52.920;6.238;2022-09-13T12:10:36;3.13;;;0.38;;
52322;SDS011;38263;52.920;6.238;2022-09-13T12:13:30;2.80;;;0.47;;
52322;SDS011;38263;52.920;6.238;2022-09-13T12:16:08;5.07;;;0.40;;
52322;SDS011;38263;52.920;6.238;2022-09-13T12:18:43;5.68;;;0.65;;
52322;SDS011;38263;52.920;6.238;2022-09-13T12:21:14;5.40;;;0.65;;
52322;SDS011;38263;52.920;6.238;2022-09-13T12:23:52;4.72;;;1.08;;
52322;SDS011;38263;52.920;6.238;2022-09-13T12:26:29;4.90;;;0.50;;
52322;SDS011;38263;52.920;6.238;2022-09-13T12:32:01;3.50;;;0.50;;
52322;SDS011;38263;52.920;6.238;2022-09-13T12:43:06;4.47;;;0.30;;
52322;SDS011;38263;52.920;6.238;2022-09-13T12:45:43;4.95;;;0.60;;
52322;SDS011;38263;52.920;6.238;2022-09-13T12:48:41;2.90;;;0.40;;
52322;SDS011;38263;52.920;6.238;2022-09-13T13:00:19;2.42;;;0.52;;
52322;SDS011;38263;52.920;6.238;2022-09-13T13:05:19;3.05;;;0.38;;
52322;SDS011;38263;52.920;6.238;2022-09-13T13:08:01;4.80;;;0.40;;
52322;SDS011;38263;52.920;6.238;2022-09-13T13:10:33;3.75;;;0.77;;
52322;SDS011;38263;52.920;6.238;2022-09-13T13:15:54;3.55;;;0.50;;
52322;SDS011;38263;52.920;6.238;2022-09-13T13:18:56;2.97;;;0.45;;
52322;SDS011;38263;52.920;6.238;2022-09-13T13:31:40;4.78;;;0.70;;
52322;SDS011;38263;52.920;6.238;2022-09-13T13:39:09;7.85;;;0.85;;
52322;SDS011;38263;52.920;6.238;2022-09-13T13:42:01;7.82;;;0.82;;
52322;SDS011;38263;52.920;6.238;2022-09-13T13:49:43;7.18;;;1.30;;
52322;SDS011;38263;52.920;6.238;2022-09-13T13:57:31;8.23;;;0.75;;
52322;SDS011;38263;52.920;6.238;2022-09-13T14:10:40;5.45;;;0.73;;
52322;SDS011;38263;52.920;6.238;2022-09-13T14:21:35;6.65;;;0.75;;
52322;SDS011;38263;52.920;6.238;2022-09-13T14:24:20;5.82;;;0.60;;
52322;SDS011;38263;52.920;6.238;2022-09-13T14:26:50;5.35;;;1.08;;
52322;SDS011;38263;52.920;6.238;2022-09-13T14:29:23;9.35;;;0.95;;
52322;SDS011;38263;52.920;6.238;2022-09-13T14:31:54;7.88;;;1.77;;
52322;SDS011;38263;52.920;6.238;2022-09-13T14:34:28;3.25;;;0.47;;
52322;SDS011;38263;52.920;6.238;2022-09-13T14:37:00;7.80;;;0.90;;
52322;SDS011;38263;52.920;6.238;2022-09-13T14:39:28;6.28;;;0.70;;
52322;SDS011;38263;52.920;6.238;2022-09-13T14:42:02;5.25;;;0.60;;
52322;SDS011;38263;52.920;6.238;2022-09-13T14:44:36;6.35;;;0.65;;
52322;SDS011;38263;52.920;6.238;2022-09-13T14:47:29;3.30;;;0.60;;
52322;SDS011;38263;52.920;6.238;2022-09-13T14:50:01;4.03;;;0.70;;
52322;SDS011;38263;52.920;6.238;2022-09-13T14:52:33;6.78;;;0.80;;
52322;SDS011;38263;52.920;6.238;2022-09-13T14:55:03;6.22;;;0.50;;
52322;SDS011;38263;52.920;6.238;2022-09-13T14:57:35;5.68;;;0.55;;
52322;SDS011;38263;52.920;6.238;2022-09-13T15:00:06;7.93;;;0.65;;
52322;SDS011;38263;52.920;6.238;2022-09-13T15:02:43;10.70;;;1.92;;
52322;SDS011;38263;52.920;6.238;2022-09-13T15:05:13;6.68;;;0.98;;
52322;SDS011;38263;52.920;6.238;2022-09-13T15:07:42;4.20;;;0.70;;
52322;SDS011;38263;52.920;6.238;2022-09-13T15:12:37;10.30;;;1.70;;
52322;SDS011;38263;52.920;6.238;2022-09-13T15:15:41;6.68;;;0.90;;
52322;SDS011;38263;52.920;6.238;2022-09-13T15:20:48;6.70;;;0.73;;
52322;SDS011;38263;52.920;6.238;2022-09-13T15:23:15;3.72;;;0.50;;
52322;SDS011;38263;52.920;6.238;2022-09-13T15:25:54;6.35;;;1.30;;
52322;SDS011;38263;52.920;6.238;2022-09-13T15:28:26;8.82;;;0.55;;
52322;SDS011;38263;52.920;6.238;2022-09-13T15:30:54;4.22;;;0.65;;
52322;SDS011;38263;52.920;6.238;2022-09-13T15:33:22;6.47;;;0.70;;
52322;SDS011;38263;52.920;6.238;2022-09-13T15:41:27;5.60;;;1.10;;
52322;SDS011;38263;52.920;6.238;2022-09-13T15:44:00;6.72;;;0.82;;
52322;SDS011;38263;52.920;6.238;2022-09-13T15:46:28;4.00;;;0.68;;
52322;SDS011;38263;52.920;6.238;2022-09-13T15:48:55;6.45;;;1.25;;
52322;SDS011;38263;52.920;6.238;2022-09-13T15:51:23;9.18;;;0.77;;
52322;SDS011;38263;52.920;6.238;2022-09-13T15:53:49;4.95;;;0.50;;
52322;SDS011;38263;52.920;6.238;2022-09-13T15:56:17;4.32;;;0.82;;
52322;SDS011;38263;52.920;6.238;2022-09-13T15:58:45;6.80;;;1.08;;
52322;SDS011;38263;52.920;6.238;2022-09-13T16:01:11;6.25;;;1.02;;
52322;SDS011;38263;52.920;6.238;2022-09-13T16:03:38;5.57;;;0.90;;
52322;SDS011;38263;52.920;6.238;2022-09-13T16:06:05;8.30;;;0.90;;
52322;SDS011;38263;52.920;6.238;2022-09-13T16:08:33;4.75;;;0.73;;
52322;SDS011;38263;52.920;6.238;2022-09-13T16:10:59;9.88;;;1.25;;
52322;SDS011;38263;52.920;6.238;2022-09-13T16:13:25;5.75;;;1.00;;
52322;SDS011;38263;52.920;6.238;2022-09-13T16:15:50;10.10;;;1.15;;
52322;SDS011;38263;52.920;6.238;2022-09-13T16:18:16;6.88;;;0.55;;
52322;SDS011;38263;52.920;6.238;2022-09-13T16:20:42;7.45;;;0.73;;
52322;SDS011;38263;52.920;6.238;2022-09-13T16:23:08;10.75;;;0.80;;
52322;SDS011;38263;52.920;6.238;2022-09-13T16:25:34;6.20;;;0.52;;
52322;SDS011;38263;52.920;6.238;2022-09-13T16:28:00;7.97;;;0.70;;
52322;SDS011;38263;52.920;6.238;2022-09-13T16:30:26;5.53;;;0.65;;
52322;SDS011;38263;52.920;6.238;2022-09-13T16:32:54;3.80;;;0.50;;
52322;SDS011;38263;52.920;6.238;2022-09-13T16:35:20;5.03;;;0.73;;
52322;SDS011;38263;52.920;6.238;2022-09-13T16:37:46;3.80;;;0.93;;
52322;SDS011;38263;52.920;6.238;2022-09-13T16:40:15;7.95;;;0.70;;
52322;SDS011;38263;52.920;6.238;2022-09-13T16:42:42;6.90;;;0.60;;
52322;SDS011;38263;52.920;6.238;2022-09-13T16:45:08;5.55;;;0.65;;
52322;SDS011;38263;52.920;6.238;2022-09-13T16:47:35;5.22;;;0.50;;
52322;SDS011;38263;52.920;6.238;2022-09-13T16:50:01;5.68;;;0.70;;
52322;SDS011;38263;52.920;6.238;2022-09-13T16:52:27;7.05;;;0.65;;
52322;SDS011;38263;52.920;6.238;2022-09-13T16:54:53;9.73;;;1.95;;
52322;SDS011;38263;52.920;6.238;2022-09-13T16:57:19;7.30;;;0.80;;
52322;SDS011;38263;52.920;6.238;2022-09-13T16:59:45;5.03;;;0.60;;
52322;SDS011;38263;52.920;6.238;2022-09-13T17:02:12;5.03;;;0.82;;
52322;SDS011;38263;52.920;6.238;2022-09-13T17:04:38;5.75;;;0.60;;
52322;SDS011;38263;52.920;6.238;2022-09-13T17:07:04;5.85;;;0.70;;
52322;SDS011;38263;52.920;6.238;2022-09-13T17:09:32;7.20;;;0.80;;
52322;SDS011;38263;52.920;6.238;2022-09-13T17:11:58;4.72;;;0.45;;
52322;SDS011;38263;52.920;6.238;2022-09-13T17:14:23;5.43;;;0.85;;
52322;SDS011;38263;52.920;6.238;2022-09-13T17:16:51;4.25;;;0.60;;
52322;SDS011;38263;52.920;6.238;2022-09-13T17:19:19;6.68;;;1.23;;
52322;SDS011;38263;52.920;6.238;2022-09-13T17:21:46;5.43;;;0.82;;
52322;SDS011;38263;52.920;6.238;2022-09-13T17:24:12;3.95;;;0.60;;
52322;SDS011;38263;52.920;6.238;2022-09-13T17:26:37;8.18;;;0.85;;
52322;SDS011;38263;52.920;6.238;2022-09-13T17:29:03;9.57;;;1.15;;
52322;SDS011;38263;52.920;6.238;2022-09-13T17:31:29;7.40;;;1.70;;
52322;SDS011;38263;52.920;6.238;2022-09-13T17:33:55;11.05;;;0.88;;
52322;SDS011;38263;52.920;6.238;2022-09-13T17:36:20;8.93;;;0.80;;
52322;SDS011;38263;52.920;6.238;2022-09-13T17:38:46;2.83;;;0.38;;
52322;SDS011;38263;52.920;6.238;2022-09-13T17:43:42;4.45;;;1.08;;
52322;SDS011;38263;52.920;6.238;2022-09-13T17:46:10;5.78;;;0.82;;
52322;SDS011;38263;52.920;6.238;2022-09-13T17:48:40;5.78;;;0.82;;
52322;SDS011;38263;52.920;6.238;2022-09-13T17:51:10;5.07;;;0.60;;
52322;SDS011;38263;52.920;6.238;2022-09-13T17:53:38;4.38;;;0.50;;
52322;SDS011;38263;52.920;6.238;2022-09-13T17:56:05;5.55;;;0.70;;
52322;SDS011;38263;52.920;6.238;2022-09-13T17:58:31;4.10;;;1.10;;
52322;SDS011;38263;52.920;6.238;2022-09-13T18:00:58;5.65;;;0.93;;
52322;SDS011;38263;52.920;6.238;2022-09-13T18:03:25;9.63;;;0.70;;
52322;SDS011;38263;52.920;6.238;2022-09-13T18:05:55;4.00;;;1.05;;
52322;SDS011;38263;52.920;6.238;2022-09-13T18:08:22;3.15;;;0.55;;
52322;SDS011;38263;52.920;6.238;2022-09-13T18:10:48;3.42;;;0.60;;
52322;SDS011;38263;52.920;6.238;2022-09-13T18:13:13;5.32;;;0.80;;
52322;SDS011;38263;52.920;6.238;2022-09-13T18:15:39;6.60;;;0.90;;
52322;SDS011;38263;52.920;6.238;2022-09-13T18:18:05;4.00;;;0.60;;
52322;SDS011;38263;52.920;6.238;2022-09-13T18:20:30;8.35;;;0.90;;
52322;SDS011;38263;52.920;6.238;2022-09-13T18:22:56;7.50;;;0.70;;